sensor_id;sensor_type;location;lat;lon;timestamp;pressure;altitude;pressure_sealevel;temperature;humidity
66588;BME280;53446;50.076;8.198;2024-03-06T00:00:52;99635.34;;;5.84;100.00
66588;BME280;53446;50.076;8.198;2024-03-06T00:02:52;99637.41;;;5.79;100.00
66588;BME280;53446;50.076;8.198;2024-03-06T00:04:52;99644.84;;;5.74;100.00
66588;BME280;53446;50.076;8.198;2024-03-06T00:06:53;99645.94;;;5.70;100.00
66588;BME280;53446;50.076;8.198;2024-03-06T00:08:55;99651.38;;;5.68;100.00
66588;BME280;53446;50.076;8.198;2024-03-06T00:10:55;99646.00;;;5.68;100.00
66588;BME280;53446;50.076;8.198;2024-03-06T00:12:56;99647.88;;;5.66;100.00
66588;BME280;53446;50.076;8.198;2024-03-06T00:14:56;99652.41;;;5.66;100.00
66588;BME280;53446;50.076;8.198;2024-03-06T00:16:56;99651.59;;;5.64;100.00
66588;BME280;53446;50.076;8.198;2024-03-06T00:18:56;99649.09;;;5.61;100.00
66588;BME280;53446;50.076;8.198;2024-03-06T00:20:58;99653.66;;;5.59;100.00
66588;BME280;53446;50.076;8.198;2024-03-06T00:22:58;99654.75;;;5.55;100.00
66588;BME280;53446;50.076;8.198;2024-03-06T00:24:59;99664.84;;;5.49;100.00
66588;BME280;53446;50.076;8.198;2024-03-06T00:26:59;99659.72;;;5.45;100.00
66588;BME280;53446;50.076;8.198;2024-03-06T00:28:59;99668.00;;;5.40;100.00
66588;BME280;53446;50.076;8.198;2024-03-06T00:31:00;99678.91;;;5.37;100.00
66588;BME280;53446;50.076;8.198;2024-03-06T00:33:00;99672.91;;;5.32;100.00
66588;BME280;53446;50.076;8.198;2024-03-06T00:35:00;99675.59;;;5.32;100.00
66588;BME280;53446;50.076;8.198;2024-03-06T00:37:00;99686.44;;;5.29;100.00
66588;BME280;53446;50.076;8.198;2024-03-06T00:39:01;99682.09;;;5.26;100.00
66588;BME280;53446;50.076;8.198;2024-03-06T00:41:04;99685.81;;;5.24;100.00
66588;BME280;53446;50.076;8.198;2024-03-06T00:43:05;99687.63;;;5.23;100.00
66588;BME280;53446;50.076;8.198;2024-03-06T00:45:05;99688.59;;;5.22;100.00
66588;BME280;53446;50.076;8.198;2024-03-06T00:47:06;99688.59;;;5.22;100.00
66588;BME280;53446;50.076;8.198;2024-03-06T00:49:06;99685.00;;;5.22;100.00
66588;BME280;53446;50.076;8.198;2024-03-06T00:51:06;99690.38;;;5.22;100.00
66588;BME280;53446;50.076;8.198;2024-03-06T00:53:07;99687.69;;;5.22;100.00
66588;BME280;53446;50.076;8.198;2024-03-06T00:55:08;99688.66;;;5.21;100.00
66588;BME280;53446;50.076;8.198;2024-03-06T00:57:09;99691.34;;;5.21;100.00
66588;BME280;53446;50.076;8.198;2024-03-06T00:59:09;99695.91;;;5.19;100.00
66588;BME280;53446;50.076;8.198;2024-03-06T01:01:10;99697.78;;;5.17;100.00
66588;BME280;53446;50.076;8.198;2024-03-06T01:03:10;99697.00;;;5.15;100.00
66588;BME280;53446;50.076;8.198;2024-03-06T01:05:11;99696.06;;;5.16;100.00
66588;BME280;53446;50.076;8.198;2024-03-06T01:07:11;99690.69;;;5.16;100.00
66588;BME280;53446;50.076;8.198;2024-03-06T01:09:12;99693.28;;;5.17;100.00
66588;BME280;53446;50.076;8.198;2024-03-06T01:11:12;99687.00;;;5.18;100.00
66588;BME280;53446;50.076;8.198;2024-03-06T01:13:14;99687.84;;;5.19;100.00
66588;BME280;53446;50.076;8.198;2024-03-06T01:15:14;99680.69;;;5.19;100.00
66588;BME280;53446;50.076;8.198;2024-03-06T01:17:15;99679.81;;;5.19;100.00
66588;BME280;53446;50.076;8.198;2024-03-06T01:19:15;99681.47;;;5.21;100.00
66588;BME280;53446;50.076;8.198;2024-03-06T01:21:15;99682.34;;;5.22;100.00
66588;BME280;53446;50.076;8.198;2024-03-06T01:23:16;99681.41;;;5.23;100.00
66588;BME280;53446;50.076;8.198;2024-03-06T01:25:17;99684.88;;;5.25;100.00
66588;BME280;53446;50.076;8.198;2024-03-06T01:27:17;99684.78;;;5.26;100.00
66588;BME280;53446;50.076;8.198;2024-03-06T01:29:17;99686.59;;;5.26;100.00
66588;BME280;53446;50.076;8.198;2024-03-06T01:31:18;99691.09;;;5.25;100.00
66588;BME280;53446;50.076;8.198;2024-03-06T01:33:18;99686.78;;;5.23;100.00
66588;BME280;53446;50.076;8.198;2024-03-06T01:35:18;99697.56;;;5.21;100.00
66588;BME280;53446;50.076;8.198;2024-03-06T01:37:19;99695.91;;;5.19;100.00
66588;BME280;53446;50.076;8.198;2024-03-06T01:39:19;99694.31;;;5.15;100.00
66588;BME280;53446;50.076;8.198;2024-03-06T01:41:20;99694.41;;;5.13;100.00
66588;BME280;53446;50.076;8.198;2024-03-06T01:43:22;99698.09;;;5.11;100.00
66588;BME280;53446;50.076;8.198;2024-03-06T01:45:22;99690.19;;;5.07;100.00
66588;BME280;53446;50.076;8.198;2024-03-06T01:47:22;99693.84;;;5.06;100.00
66588;BME280;53446;50.076;8.198;2024-03-06T01:49:23;99699.34;;;5.03;100.00
66588;BME280;53446;50.076;8.198;2024-03-06T01:51:24;99699.41;;;5.02;100.00
66588;BME280;53446;50.076;8.198;2024-03-06T01:53:24;99695.06;;;4.99;100.00
66588;BME280;53446;50.076;8.198;2024-03-06T01:55:27;99693.31;;;4.98;100.00
66588;BME280;53446;50.076;8.198;2024-03-06T01:57:27;99705.78;;;4.99;100.00
66588;BME280;53446;50.076;8.198;2024-03-06T01:59:29;99697.69;;;5.01;100.00
66588;BME280;53446;50.076;8.198;2024-03-06T02:01:32;99694.91;;;5.02;100.00
66588;BME280;53446;50.076;8.198;2024-03-06T02:03:33;99692.97;;;5.06;100.00
66588;BME280;53446;50.076;8.198;2024-03-06T02:05:33;99694.63;;;5.08;100.00
66588;BME280;53446;50.076;8.198;2024-03-06T02:07:36;99702.50;;;5.12;100.00
66588;BME280;53446;50.076;8.198;2024-03-06T02:09:38;99697.94;;;5.14;100.00
66588;BME280;53446;50.076;8.198;2024-03-06T02:11:38;99700.63;;;5.14;100.00
66588;BME280;53446;50.076;8.198;2024-03-06T02:13:39;99703.31;;;5.14;100.00
66588;BME280;53446;50.076;8.198;2024-03-06T02:15:40;99697.94;;;5.14;100.00
66588;BME280;53446;50.076;8.198;2024-03-06T02:17:41;99705.91;;;5.15;100.00
66588;BME280;53446;50.076;8.198;2024-03-06T02:19:43;99711.13;;;5.18;100.00
66588;BME280;53446;50.076;8.198;2024-03-06T02:21:44;99708.38;;;5.20;100.00
66588;BME280;53446;50.076;8.198;2024-03-06T02:23:44;99713.75;;;5.20;100.00
66588;BME280;53446;50.076;8.198;2024-03-06T02:25:44;99718.22;;;5.19;100.00
66588;BME280;53446;50.076;8.198;2024-03-06T02:27:47;99719.97;;;5.20;100.00
66588;BME280;53446;50.076;8.198;2024-03-06T02:29:50;99715.47;;;5.21;100.00
66588;BME280;53446;50.076;8.198;2024-03-06T02:31:50;99712.72;;;5.22;100.00
66588;BME280;53446;50.076;8.198;2024-03-06T02:33:51;99713.50;;;5.24;100.00
66588;BME280;53446;50.076;8.198;2024-03-06T02:35:51;99714.38;;;5.25;100.00
66588;BME280;53446;50.076;8.198;2024-03-06T02:37:52;99711.69;;;5.25;100.00
66588;BME280;53446;50.076;8.198;2024-03-06T02:39:52;99720.66;;;5.24;100.00
66588;BME280;53446;50.076;8.198;2024-03-06T02:41:52;99714.50;;;5.22;100.00
66588;BME280;53446;50.076;8.198;2024-03-06T02:43:52;99711.97;;;5.19;100.00
66588;BME280;53446;50.076;8.198;2024-03-06T02:45:53;99712.16;;;5.16;100.00
66588;BME280;53446;50.076;8.198;2024-03-06T02:47:53;99701.59;;;5.13;100.00
66588;BME280;53446;50.076;8.198;2024-03-06T02:49:54;99701.81;;;5.08;100.00
66588;BME280;53446;50.076;8.198;2024-03-06T02:51:54;99701.06;;;5.04;100.00
66588;BME280;53446;50.076;8.198;2024-03-06T02:53:54;99704.94;;;4.99;100.00
66588;BME280;53446;50.076;8.198;2024-03-06T02:55:55;99714.06;;;4.95;100.00
66588;BME280;53446;50.076;8.198;2024-03-06T02:57:55;99703.56;;;4.90;100.00
66588;BME280;53446;50.076;8.198;2024-03-06T02:59:56;99709.19;;;4.84;100.00
66588;BME280;53446;50.076;8.198;2024-03-06T03:01:57;99712.19;;;4.78;100.00
66588;BME280;53446;50.076;8.198;2024-03-06T03:03:57;99708.94;;;4.71;100.00
66588;BME280;53446;50.076;8.198;2024-03-06T03:05:57;99709.13;;;4.66;100.00
66588;BME280;53446;50.076;8.198;2024-03-06T03:07:57;99711.97;;;4.63;100.00
66588;BME280;53446;50.076;8.198;2024-03-06T03:09:58;99716.69;;;4.58;100.00
66588;BME280;53446;50.076;8.198;2024-03-06T03:11:58;99720.44;;;4.54;100.00
66588;BME280;53446;50.076;8.198;2024-03-06T03:13:59;99721.50;;;4.50;100.00
66588;BME280;53446;50.076;8.198;2024-03-06T03:15:59;99723.47;;;4.47;100.00
66588;BME280;53446;50.076;8.198;2024-03-06T03:18:00;99720.06;;;4.43;100.00
66588;BME280;53446;50.076;8.198;2024-03-06T03:20:01;99714.75;;;4.41;100.00
66588;BME280;53446;50.076;8.198;2024-03-06T03:22:10;99723.81;;;4.39;100.00
66588;BME280;53446;50.076;8.198;2024-03-06T03:24:10;99727.50;;;4.36;100.00
66588;BME280;53446;50.076;8.198;2024-03-06T03:26:11;99731.97;;;4.36;100.00
66588;BME280;53446;50.076;8.198;2024-03-06T03:28:11;99730.38;;;4.32;100.00
66588;BME280;53446;50.076;8.198;2024-03-06T03:30:11;99731.31;;;4.31;100.00
66588;BME280;53446;50.076;8.198;2024-03-06T03:32:12;99726.13;;;4.28;100.00
66588;BME280;53446;50.076;8.198;2024-03-06T03:34:12;99726.19;;;4.26;100.00
66588;BME280;53446;50.076;8.198;2024-03-06T03:36:12;99729.78;;;4.25;100.00
66588;BME280;53446;50.076;8.198;2024-03-06T03:38:12;99728.91;;;4.24;100.00
66588;BME280;53446;50.076;8.198;2024-03-06T03:40:14;99731.69;;;4.23;100.00
66588;BME280;53446;50.076;8.198;2024-03-06T03:42:15;99728.19;;;4.21;100.00
66588;BME280;53446;50.076;8.198;2024-03-06T03:44:19;99733.66;;;4.18;100.00
66588;BME280;53446;50.076;8.198;2024-03-06T03:46:19;99730.22;;;4.16;100.00
66588;BME280;53446;50.076;8.198;2024-03-06T03:48:20;99726.78;;;4.12;100.00
66588;BME280;53446;50.076;8.198;2024-03-06T03:50:20;99728.66;;;4.10;100.00
66588;BME280;53446;50.076;8.198;2024-03-06T03:52:20;99730.63;;;4.07;100.00
66588;BME280;53446;50.076;8.198;2024-03-06T03:54:20;99737.00;;;4.04;100.00
66588;BME280;53446;50.076;8.198;2024-03-06T03:56:21;99733.50;;;4.02;100.00
66588;BME280;53446;50.076;8.198;2024-03-06T03:58:21;99738.84;;;4.02;100.00
66588;BME280;53446;50.076;8.198;2024-03-06T04:00:22;99735.28;;;4.01;100.00
66588;BME280;53446;50.076;8.198;2024-03-06T04:02:22;99744.31;;;3.99;100.00
66588;BME280;53446;50.076;8.198;2024-03-06T04:04:23;99747.09;;;3.97;100.00
66588;BME280;53446;50.076;8.198;2024-03-06T04:06:23;99735.63;;;3.94;100.00
66588;BME280;53446;50.076;8.198;2024-03-06T04:08:23;99739.25;;;3.93;100.00
66588;BME280;53446;50.076;8.198;2024-03-06T04:10:24;99745.66;;;3.89;100.00
66588;BME280;53446;50.076;8.198;2024-03-06T04:12:24;99743.25;;;3.82;100.00
66588;BME280;53446;50.076;8.198;2024-03-06T04:14:25;99743.38;;;3.79;100.00
66588;BME280;53446;50.076;8.198;2024-03-06T04:16:26;99746.13;;;3.78;100.00
66588;BME280;53446;50.076;8.198;2024-03-06T04:18:26;99744.44;;;3.75;100.00
66588;BME280;53446;50.076;8.198;2024-03-06T04:20:27;99747.13;;;3.75;100.00
66588;BME280;53446;50.076;8.198;2024-03-06T04:22:27;99747.94;;;3.77;100.00
66588;BME280;53446;50.076;8.198;2024-03-06T04:24:29;99753.22;;;3.79;100.00
66588;BME280;53446;50.076;8.198;2024-03-06T04:26:29;99749.53;;;3.81;100.00
66588;BME280;53446;50.076;8.198;2024-03-06T04:28:29;99759.19;;;3.86;100.00
66588;BME280;53446;50.076;8.198;2024-03-06T04:30:29;99759.91;;;3.89;100.00
66588;BME280;53446;50.076;8.198;2024-03-06T04:32:30;99759.78;;;3.92;100.00
66588;BME280;53446;50.076;8.198;2024-03-06T04:34:30;99761.53;;;3.93;100.00
66588;BME280;53446;50.076;8.198;2024-03-06T04:36:30;99767.72;;;3.94;100.00
66588;BME280;53446;50.076;8.198;2024-03-06T04:38:31;99773.91;;;3.96;100.00
66588;BME280;53446;50.076;8.198;2024-03-06T04:40:31;99767.63;;;3.97;100.00
66588;BME280;53446;50.076;8.198;2024-03-06T04:42:31;99775.50;;;4.00;100.00
66588;BME280;53446;50.076;8.198;2024-03-06T04:44:34;99773.63;;;4.02;100.00
66588;BME280;53446;50.076;8.198;2024-03-06T04:46:35;99780.56;;;4.06;100.00
66588;BME280;53446;50.076;8.198;2024-03-06T04:48:35;99782.19;;;4.10;100.00
66588;BME280;53446;50.076;8.198;2024-03-06T04:50:35;99781.13;;;4.14;100.00
66588;BME280;53446;50.076;8.198;2024-03-06T04:52:36;99785.47;;;4.17;100.00
66588;BME280;53446;50.076;8.198;2024-03-06T04:54:37;99795.31;;;4.16;100.00
66588;BME280;53446;50.076;8.198;2024-03-06T04:56:37;99795.22;;;4.18;100.00
66588;BME280;53446;50.076;8.198;2024-03-06T04:58:37;99802.25;;;4.20;100.00
66588;BME280;53446;50.076;8.198;2024-03-06T05:00:38;99798.66;;;4.21;100.00
66588;BME280;53446;50.076;8.198;2024-03-06T05:02:38;99803.81;;;4.26;100.00
66588;BME280;53446;50.076;8.198;2024-03-06T05:04:39;99810.84;;;4.29;100.00
66588;BME280;53446;50.076;8.198;2024-03-06T05:06:39;99803.50;;;4.32;100.00
66588;BME280;53446;50.076;8.198;2024-03-06T05:08:39;99813.09;;;4.38;100.00
66588;BME280;53446;50.076;8.198;2024-03-06T05:10:39;99821.00;;;4.41;100.00
66588;BME280;53446;50.076;8.198;2024-03-06T05:12:40;99805.69;;;4.44;100.00
66588;BME280;53446;50.076;8.198;2024-03-06T05:14:40;99813.56;;;4.48;100.00
66588;BME280;53446;50.076;8.198;2024-03-06T05:16:40;99814.41;;;4.48;100.00
66588;BME280;53446;50.076;8.198;2024-03-06T05:18:41;99820.59;;;4.50;100.00
66588;BME280;53446;50.076;8.198;2024-03-06T05:20:41;99817.84;;;4.52;100.00
66588;BME280;53446;50.076;8.198;2024-03-06T05:22:41;99816.03;;;4.52;100.00
66588;BME280;53446;50.076;8.198;2024-03-06T05:24:42;99815.22;;;4.50;100.00
66588;BME280;53446;50.076;8.198;2024-03-06T05:26:42;99809.00;;;4.50;100.00
66588;BME280;53446;50.076;8.198;2024-03-06T05:28:43;99818.84;;;4.49;100.00
66588;BME280;53446;50.076;8.198;2024-03-06T05:30:43;99818.84;;;4.49;100.00
66588;BME280;53446;50.076;8.198;2024-03-06T05:32:43;99818.91;;;4.48;100.00
66588;BME280;53446;50.076;8.198;2024-03-06T05:34:44;99824.22;;;4.49;100.00
66588;BME280;53446;50.076;8.198;2024-03-06T05:36:44;99833.16;;;4.48;100.00
66588;BME280;53446;50.076;8.198;2024-03-06T05:38:45;99834.97;;;4.48;100.00
66588;BME280;53446;50.076;8.198;2024-03-06T05:40:45;99842.16;;;4.47;100.00
66588;BME280;53446;50.076;8.198;2024-03-06T05:42:46;99844.03;;;4.45;100.00
66588;BME280;53446;50.076;8.198;2024-03-06T05:44:46;99842.25;;;4.44;100.00
66588;BME280;53446;50.076;8.198;2024-03-06T05:46:48;99846.56;;;4.48;100.00
66588;BME280;53446;50.076;8.198;2024-03-06T05:48:48;99844.53;;;4.53;100.00
66588;BME280;53446;50.076;8.198;2024-03-06T05:50:50;99844.34;;;4.58;100.00
66588;BME280;53446;50.076;8.198;2024-03-06T05:52:50;99852.16;;;4.62;100.00
66588;BME280;53446;50.076;8.198;2024-03-06T05:54:50;99852.91;;;4.66;100.00
66588;BME280;53446;50.076;8.198;2024-03-06T05:56:51;99849.16;;;4.70;100.00
66588;BME280;53446;50.076;8.198;2024-03-06T05:58:52;99855.38;;;4.71;100.00
66588;BME280;53446;50.076;8.198;2024-03-06T06:00:53;99857.97;;;4.72;100.00
66588;BME280;53446;50.076;8.198;2024-03-06T06:02:53;99863.94;;;4.79;100.00
66588;BME280;53446;50.076;8.198;2024-03-06T06:04:53;99863.66;;;4.85;100.00
66588;BME280;53446;50.076;8.198;2024-03-06T06:06:54;99861.50;;;4.93;100.00
66588;BME280;53446;50.076;8.198;2024-03-06T06:08:54;99866.59;;;4.99;100.00
66588;BME280;53446;50.076;8.198;2024-03-06T06:10:54;99870.66;;;5.08;100.00
66588;BME280;53446;50.076;8.198;2024-03-06T06:12:54;99873.91;;;5.15;100.00
66588;BME280;53446;50.076;8.198;2024-03-06T06:14:55;99872.81;;;5.19;100.00
66588;BME280;53446;50.076;8.198;2024-03-06T06:16:58;99878.19;;;5.19;100.00
66588;BME280;53446;50.076;8.198;2024-03-06T06:18:58;99874.78;;;5.15;100.00
66588;BME280;53446;50.076;8.198;2024-03-06T06:20:59;99878.69;;;5.08;100.00
66588;BME280;53446;50.076;8.198;2024-03-06T06:22:59;99878.16;;;5.00;100.00
66588;BME280;53446;50.076;8.198;2024-03-06T06:25:00;99882.22;;;4.90;100.00
66588;BME280;53446;50.076;8.198;2024-03-06T06:27:00;99878.13;;;4.81;100.00
66588;BME280;53446;50.076;8.198;2024-03-06T06:29:01;99873.19;;;4.72;100.00
66588;BME280;53446;50.076;8.198;2024-03-06T06:31:01;99877.88;;;4.66;100.00
66588;BME280;53446;50.076;8.198;2024-03-06T06:33:01;99882.44;;;4.64;100.00
66588;BME280;53446;50.076;8.198;2024-03-06T06:35:02;99887.66;;;4.67;100.00
66588;BME280;53446;50.076;8.198;2024-03-06T06:37:03;99889.41;;;4.69;100.00
66588;BME280;53446;50.076;8.198;2024-03-06T06:39:04;99886.66;;;4.70;100.00
66588;BME280;53446;50.076;8.198;2024-03-06T06:41:06;99894.56;;;4.73;100.00
66588;BME280;53446;50.076;8.198;2024-03-06T06:43:06;99898.84;;;4.77;100.00
66588;BME280;53446;50.076;8.198;2024-03-06T06:45:07;99902.41;;;4.78;100.00
66588;BME280;53446;50.076;8.198;2024-03-06T06:47:09;99904.06;;;4.80;100.00
66588;BME280;53446;50.076;8.198;2024-03-06T06:49:09;99903.09;;;4.81;100.00
66588;BME280;53446;50.076;8.198;2024-03-06T06:51:10;99906.69;;;4.82;100.00
66588;BME280;53446;50.076;8.198;2024-03-06T06:53:10;99908.41;;;4.83;100.00
66588;BME280;53446;50.076;8.198;2024-03-06T06:55:10;99912.91;;;4.82;100.00
66588;BME280;53446;50.076;8.198;2024-03-06T06:57:11;99918.19;;;4.84;100.00
66588;BME280;53446;50.076;8.198;2024-03-06T06:59:11;99920.00;;;4.83;100.00
66588;BME280;53446;50.076;8.198;2024-03-06T07:01:13;99925.28;;;4.85;100.00
66588;BME280;53446;50.076;8.198;2024-03-06T07:03:16;99918.13;;;4.85;100.00
66588;BME280;53446;50.076;8.198;2024-03-06T07:05:17;99923.28;;;4.90;100.00
66588;BME280;53446;50.076;8.198;2024-03-06T07:07:17;99922.06;;;4.97;100.00
66588;BME280;53446;50.076;8.198;2024-03-06T07:09:18;99917.09;;;5.08;100.00
66588;BME280;53446;50.076;8.198;2024-03-06T07:11:19;99929.94;;;5.21;100.00
66588;BME280;53446;50.076;8.198;2024-03-06T07:13:20;99934.72;;;5.33;100.00
66588;BME280;53446;50.076;8.198;2024-03-06T07:15:20;99939.50;;;5.45;100.00
66588;BME280;53446;50.076;8.198;2024-03-06T07:17:21;99943.38;;;5.59;100.00
66588;BME280;53446;50.076;8.198;2024-03-06T07:19:21;99943.00;;;5.66;100.00
66588;BME280;53446;50.076;8.198;2024-03-06T07:21:22;99935.81;;;5.67;100.00
66588;BME280;53446;50.076;8.198;2024-03-06T07:23:22;99936.06;;;5.62;100.00
66588;BME280;53446;50.076;8.198;2024-03-06T07:25:22;99941.69;;;5.56;100.00
66588;BME280;53446;50.076;8.198;2024-03-06T07:27:22;99941.47;;;5.61;100.00
66588;BME280;53446;50.076;8.198;2024-03-06T07:29:23;99942.41;;;5.60;100.00
66588;BME280;53446;50.076;8.198;2024-03-06T07:31:23;99951.19;;;5.63;100.00
66588;BME280;53446;50.076;8.198;2024-03-06T07:33:23;99938.44;;;5.68;100.00
66588;BME280;53446;50.076;8.198;2024-03-06T07:35:24;99943.34;;;5.78;100.00
66588;BME280;53446;50.076;8.198;2024-03-06T07:37:24;99944.44;;;5.92;100.00
66588;BME280;53446;50.076;8.198;2024-03-06T07:39:24;99943.56;;;6.11;100.00
66588;BME280;53446;50.076;8.198;2024-03-06T07:41:25;99949.75;;;6.30;100.00
66588;BME280;53446;50.076;8.198;2024-03-06T07:43:25;99947.97;;;6.48;100.00
66588;BME280;53446;50.076;8.198;2024-03-06T07:45:26;99951.53;;;6.66;100.00
66588;BME280;53446;50.076;8.198;2024-03-06T07:47:27;99947.25;;;6.79;100.00
66588;BME280;53446;50.076;8.198;2024-03-06T07:49:27;99959.13;;;6.93;100.00
66588;BME280;53446;50.076;8.198;2024-03-06T07:51:27;99956.56;;;7.07;100.00
66588;BME280;53446;50.076;8.198;2024-03-06T07:53:28;99947.22;;;7.14;100.00
66588;BME280;53446;50.076;8.198;2024-03-06T07:55:28;99959.41;;;7.21;100.00
66588;BME280;53446;50.076;8.198;2024-03-06T07:57:29;99956.03;;;7.34;100.00
66588;BME280;53446;50.076;8.198;2024-03-06T07:59:29;99953.63;;;7.45;100.00
66588;BME280;53446;50.076;8.198;2024-03-06T08:01:29;99957.56;;;7.55;100.00
66588;BME280;53446;50.076;8.198;2024-03-06T08:03:30;99955.06;;;7.68;100.00
66588;BME280;53446;50.076;8.198;2024-03-06T08:05:30;99959.75;;;7.80;100.00
66588;BME280;53446;50.076;8.198;2024-03-06T08:07:33;99955.50;;;7.92;100.00
66588;BME280;53446;50.076;8.198;2024-03-06T08:09:33;99947.31;;;8.10;100.00
66588;BME280;53446;50.076;8.198;2024-03-06T08:11:34;99958.03;;;8.27;100.00
66588;BME280;53446;50.076;8.198;2024-03-06T08:13:34;99958.91;;;8.43;100.00
66588;BME280;53446;50.076;8.198;2024-03-06T08:15:34;99962.50;;;8.58;100.00
66588;BME280;53446;50.076;8.198;2024-03-06T08:17:35;99958.81;;;8.75;100.00
66588;BME280;53446;50.076;8.198;2024-03-06T08:19:35;99957.97;;;8.89;100.00
66588;BME280;53446;50.076;8.198;2024-03-06T08:21:35;99958.66;;;9.07;100.00
66588;BME280;53446;50.076;8.198;2024-03-06T08:23:36;99960.25;;;9.25;100.00
66588;BME280;53446;50.076;8.198;2024-03-06T08:25:36;99959.19;;;9.42;100.00
66588;BME280;53446;50.076;8.198;2024-03-06T08:27:39;99963.34;;;9.62;100.00
66588;BME280;53446;50.076;8.198;2024-03-06T08:29:40;99962.19;;;9.81;100.00
66588;BME280;53446;50.076;8.198;2024-03-06T08:31:40;99970.91;;;9.99;100.00
66588;BME280;53446;50.076;8.198;2024-03-06T08:33:40;99966.75;;;10.07;100.00
66588;BME280;53446;50.076;8.198;2024-03-06T08:35:41;99968.84;;;10.16;100.00
66588;BME280;53446;50.076;8.198;2024-03-06T08:37:42;99969.50;;;10.20;100.00
66588;BME280;53446;50.076;8.198;2024-03-06T08:39:42;99970.56;;;10.17;100.00
66588;BME280;53446;50.076;8.198;2024-03-06T08:41:43;99973.50;;;10.14;100.00
66588;BME280;53446;50.076;8.198;2024-03-06T08:43:43;99977.47;;;10.09;100.00
66588;BME280;53446;50.076;8.198;2024-03-06T08:45:44;99974.78;;;10.09;100.00
66588;BME280;53446;50.076;8.198;2024-03-06T08:47:45;99974.66;;;10.10;100.00
66588;BME280;53446;50.076;8.198;2024-03-06T08:49:46;99984.28;;;10.14;100.00
66588;BME280;53446;50.076;8.198;2024-03-06T08:51:46;99980.44;;;10.18;100.00
66588;BME280;53446;50.076;8.198;2024-03-06T08:53:47;99986.41;;;10.24;100.00
66588;BME280;53446;50.076;8.198;2024-03-06T08:55:48;99989.00;;;10.25;100.00
66588;BME280;53446;50.076;8.198;2024-03-06T08:57:49;99988.13;;;10.25;100.00
66588;BME280;53446;50.076;8.198;2024-03-06T08:59:50;99985.84;;;10.33;100.00
66588;BME280;53446;50.076;8.198;2024-03-06T09:01:54;99987.63;;;10.47;100.00
66588;BME280;53446;50.076;8.198;2024-03-06T09:03:55;99995.56;;;10.63;100.00
66588;BME280;53446;50.076;8.198;2024-03-06T09:05:58;99989.53;;;10.72;100.00
66588;BME280;53446;50.076;8.198;2024-03-06T09:07:59;99995.94;;;10.84;100.00
66588;BME280;53446;50.076;8.198;2024-03-06T09:10:00;99994.25;;;10.95;100.00
66588;BME280;53446;50.076;8.198;2024-03-06T09:14:05;100002.41;;;11.21;100.00
66588;BME280;53446;50.076;8.198;2024-03-06T09:16:05;100003.19;;;11.36;100.00
66588;BME280;53446;50.076;8.198;2024-03-06T09:18:06;100008.16;;;11.55;100.00
66588;BME280;53446;50.076;8.198;2024-03-06T09:20:06;100000.81;;;11.70;100.00
66588;BME280;53446;50.076;8.198;2024-03-06T09:22:09;100005.34;;;11.82;100.00
66588;BME280;53446;50.076;8.198;2024-03-06T09:24:10;100004.81;;;11.90;100.00
66588;BME280;53446;50.076;8.198;2024-03-06T09:26:10;100007.72;;;11.99;100.00
66588;BME280;53446;50.076;8.198;2024-03-06T09:28:10;100010.44;;;12.12;100.00
66588;BME280;53446;50.076;8.198;2024-03-06T09:30:11;100011.75;;;12.31;100.00
66588;BME280;53446;50.076;8.198;2024-03-06T09:32:13;100003.78;;;12.53;100.00
66588;BME280;53446;50.076;8.198;2024-03-06T09:34:15;99995.34;;;12.69;100.00
66588;BME280;53446;50.076;8.198;2024-03-06T09:36:16;99999.19;;;12.78;100.00
66588;BME280;53446;50.076;8.198;2024-03-06T09:38:16;100002.81;;;12.89;100.00
66588;BME280;53446;50.076;8.198;2024-03-06T09:40:20;99991.34;;;12.86;100.00
66588;BME280;53446;50.076;8.198;2024-03-06T09:42:21;99993.31;;;12.84;100.00
66588;BME280;53446;50.076;8.198;2024-03-06T09:44:23;99994.34;;;12.94;100.00
66588;BME280;53446;50.076;8.198;2024-03-06T09:46:23;99994.28;;;13.07;100.00
66588;BME280;53446;50.076;8.198;2024-03-06T09:48:23;99997.88;;;13.19;100.00
66588;BME280;53446;50.076;8.198;2024-03-06T09:50:24;99995.25;;;13.30;100.00
66588;BME280;53446;50.076;8.198;2024-03-06T09:52:26;100003.53;;;13.40;100.00
66588;BME280;53446;50.076;8.198;2024-03-06T09:54:27;99993.16;;;13.45;100.00
66588;BME280;53446;50.076;8.198;2024-03-06T09:56:28;99987.97;;;13.42;100.00
66588;BME280;53446;50.076;8.198;2024-03-06T09:58:28;99995.25;;;13.41;100.00
66588;BME280;53446;50.076;8.198;2024-03-06T10:00:28;99997.75;;;13.44;100.00
66588;BME280;53446;50.076;8.198;2024-03-06T10:02:38;99995.25;;;13.52;100.00
66588;BME280;53446;50.076;8.198;2024-03-06T10:04:38;99997.75;;;13.67;100.00
66588;BME280;53446;50.076;8.198;2024-03-06T10:06:39;99997.28;;;13.73;100.00
66588;BME280;53446;50.076;8.198;2024-03-06T10:08:42;99998.00;;;13.86;100.00
66588;BME280;53446;50.076;8.198;2024-03-06T10:10:42;100008.63;;;14.12;100.00
66588;BME280;53446;50.076;8.198;2024-03-06T10:12:45;100000.91;;;14.39;100.00
66588;BME280;53446;50.076;8.198;2024-03-06T10:14:52;99998.19;;;14.51;100.00
66588;BME280;53446;50.076;8.198;2024-03-06T10:16:57;99991.00;;;14.50;100.00
66588;BME280;53446;50.076;8.198;2024-03-06T10:18:58;99990.75;;;14.53;100.00
66588;BME280;53446;50.076;8.198;2024-03-06T10:21:15;99986.78;;;14.68;100.00
66588;BME280;53446;50.076;8.198;2024-03-06T10:23:17;99993.38;;;14.87;100.00
66588;BME280;53446;50.076;8.198;2024-03-06T10:25:21;100004.69;;;15.03;100.00
66588;BME280;53446;50.076;8.198;2024-03-06T10:27:22;99999.41;;;15.22;100.00
66588;BME280;53446;50.076;8.198;2024-03-06T10:29:22;99999.53;;;15.42;100.00
66588;BME280;53446;50.076;8.198;2024-03-06T10:31:27;100002.63;;;15.58;100.00
66588;BME280;53446;50.076;8.198;2024-03-06T10:33:31;99996.63;;;15.76;100.00
66588;BME280;53446;50.076;8.198;2024-03-06T10:35:35;99995.25;;;15.91;100.00
66588;BME280;53446;50.076;8.198;2024-03-06T10:37:38;99994.75;;;16.07;100.00
66588;BME280;53446;50.076;8.198;2024-03-06T10:39:42;100002.13;;;16.26;100.00